sensor_id;sensor_type;location;lat;lon;timestamp;temperature;humidity
44111;DHT22;29774;52.664;5.074;2022-09-09T00:06:59;24.10;58.50
44111;DHT22;29774;52.664;5.074;2022-09-09T00:09:29;23.50;59.90
44111;DHT22;29774;52.664;5.074;2022-09-09T00:12:08;23.70;59.80
44111;DHT22;29774;52.664;5.074;2022-09-09T00:15:03;23.90;58.30
44111;DHT22;29774;52.664;5.074;2022-09-09T00:20:02;24.00;59.20
44111;DHT22;29774;52.664;5.074;2022-09-09T00:22:30;23.40;60.50
44111;DHT22;29774;52.664;5.074;2022-09-09T00:25:10;23.50;59.70
44111;DHT22;29774;52.664;5.074;2022-09-09T00:27:49;23.50;60.60
44111;DHT22;29774;52.664;5.074;2022-09-09T00:30:21;24.10;58.60
44111;DHT22;29774;52.664;5.074;2022-09-09T00:32:50;24.00;59.10
44111;DHT22;29774;52.664;5.074;2022-09-09T00:35:26;23.60;60.10
44111;DHT22;29774;52.664;5.074;2022-09-09T00:37:57;23.60;59.30
44111;DHT22;29774;52.664;5.074;2022-09-09T00:40:39;23.80;59.40
44111;DHT22;29774;52.664;5.074;2022-09-09T00:43:25;24.00;58.90
44111;DHT22;29774;52.664;5.074;2022-09-09T00:48:22;24.20;58.10
44111;DHT22;29774;52.664;5.074;2022-09-09T00:50:56;23.80;59.40
44111;DHT22;29774;52.664;5.074;2022-09-09T00:53:57;23.80;57.00
44111;DHT22;29774;52.664;5.074;2022-09-09T00:56:29;24.30;58.00
44111;DHT22;29774;52.664;5.074;2022-09-09T01:01:36;24.20;57.90
44111;DHT22;29774;52.664;5.074;2022-09-09T01:04:13;24.40;57.60
44111;DHT22;29774;52.664;5.074;2022-09-09T01:06:43;24.40;57.40
44111;DHT22;29774;52.664;5.074;2022-09-09T01:09:32;24.30;57.50
44111;DHT22;29774;52.664;5.074;2022-09-09T01:12:09;24.20;58.20
44111;DHT22;29774;52.664;5.074;2022-09-09T01:19:59;24.40;57.50
44111;DHT22;29774;52.664;5.074;2022-09-09T01:28:03;24.30;57.50
44111;DHT22;29774;52.664;5.074;2022-09-09T01:30:30;24.30;57.50
44111;DHT22;29774;52.664;5.074;2022-09-09T01:32:58;24.30;57.60
44111;DHT22;29774;52.664;5.074;2022-09-09T01:35:40;24.20;58.00
44111;DHT22;29774;52.664;5.074;2022-09-09T01:38:08;24.30;57.50
44111;DHT22;29774;52.664;5.074;2022-09-09T01:40:34;24.00;58.30
44111;DHT22;29774;52.664;5.074;2022-09-09T01:43:00;24.20;57.90
44111;DHT22;29774;52.664;5.074;2022-09-09T01:45:25;24.40;57.30
44111;DHT22;29774;52.664;5.074;2022-09-09T01:47:55;24.30;57.40
44111;DHT22;29774;52.664;5.074;2022-09-09T01:50:22;24.30;57.50
44111;DHT22;29774;52.664;5.074;2022-09-09T01:52:51;24.30;56.80
44111;DHT22;29774;52.664;5.074;2022-09-09T01:55:33;24.30;57.30
44111;DHT22;29774;52.664;5.074;2022-09-09T01:58:32;24.30;57.40
44111;DHT22;29774;52.664;5.074;2022-09-09T02:01:17;24.10;57.80
44111;DHT22;29774;52.664;5.074;2022-09-09T02:03:52;24.30;57.50
44111;DHT22;29774;52.664;5.074;2022-09-09T02:06:28;24.40;57.40
44111;DHT22;29774;52.664;5.074;2022-09-09T02:08:57;24.30;57.40
44111;DHT22;29774;52.664;5.074;2022-09-09T02:11:26;24.40;57.40
44111;DHT22;29774;52.664;5.074;2022-09-09T02:13:57;24.40;57.30
44111;DHT22;29774;52.664;5.074;2022-09-09T02:16:32;24.30;57.30
44111;DHT22;29774;52.664;5.074;2022-09-09T02:19:10;24.30;57.60
44111;DHT22;29774;52.664;5.074;2022-09-09T02:21:39;24.20;57.60
44111;DHT22;29774;52.664;5.074;2022-09-09T02:24:07;24.20;57.60
44111;DHT22;29774;52.664;5.074;2022-09-09T02:26:38;24.30;57.60
44111;DHT22;29774;52.664;5.074;2022-09-09T02:29:09;24.20;57.60
44111;DHT22;29774;52.664;5.074;2022-09-09T02:31:38;24.30;57.60
44111;DHT22;29774;52.664;5.074;2022-09-09T02:34:05;24.10;58.20
44111;DHT22;29774;52.664;5.074;2022-09-09T02:36:34;23.90;59.00
44111;DHT22;29774;52.664;5.074;2022-09-09T02:39:02;24.00;58.60
44111;DHT22;29774;52.664;5.074;2022-09-09T02:41:34;24.20;57.60
44111;DHT22;29774;52.664;5.074;2022-09-09T02:44:01;24.20;57.80
44111;DHT22;29774;52.664;5.074;2022-09-09T02:51:52;24.00;58.30
44111;DHT22;29774;52.664;5.074;2022-09-09T02:54:28;23.90;58.70
44111;DHT22;29774;52.664;5.074;2022-09-09T02:57:03;23.80;58.40
44111;DHT22;29774;52.664;5.074;2022-09-09T02:59:30;23.60;59.40
44111;DHT22;29774;52.664;5.074;2022-09-09T03:01:56;23.90;58.40
44111;DHT22;29774;52.664;5.074;2022-09-09T03:04:22;23.30;60.10
44111;DHT22;29774;52.664;5.074;2022-09-09T03:06:50;23.80;58.80
44111;DHT22;29774;52.664;5.074;2022-09-09T03:09:15;23.40;59.60
44111;DHT22;29774;52.664;5.074;2022-09-09T03:11:41;23.70;59.40
44111;DHT22;29774;52.664;5.074;2022-09-09T03:14:07;23.80;58.20
44111;DHT22;29774;52.664;5.074;2022-09-09T03:16:32;23.50;59.90
44111;DHT22;29774;52.664;5.074;2022-09-09T03:19:00;23.70;59.20
44111;DHT22;29774;52.664;5.074;2022-09-09T03:21:26;23.70;58.40
44111;DHT22;29774;52.664;5.074;2022-09-09T03:23:52;23.70;58.90
44111;DHT22;29774;52.664;5.074;2022-09-09T03:26:17;23.10;60.50
44111;DHT22;29774;52.664;5.074;2022-09-09T03:28:43;23.50;59.70
44111;DHT22;29774;52.664;5.074;2022-09-09T03:31:10;23.30;60.20
44111;DHT22;29774;52.664;5.074;2022-09-09T03:33:36;23.50;59.50
44111;DHT22;29774;52.664;5.074;2022-09-09T03:36:03;23.30;60.30
44111;DHT22;29774;52.664;5.074;2022-09-09T03:38:29;23.50;60.00
44111;DHT22;29774;52.664;5.074;2022-09-09T03:40:55;23.00;60.60
44111;DHT22;29774;52.664;5.074;2022-09-09T03:43:23;23.60;59.50
44111;DHT22;29774;52.664;5.074;2022-09-09T03:45:49;23.90;58.60
44111;DHT22;29774;52.664;5.074;2022-09-09T03:48:16;23.80;58.60
44111;DHT22;29774;52.664;5.074;2022-09-09T03:50:50;23.50;59.30
44111;DHT22;29774;52.664;5.074;2022-09-09T03:53:17;23.70;58.90
44111;DHT22;29774;52.664;5.074;2022-09-09T03:55:49;23.70;59.10
44111;DHT22;29774;52.664;5.074;2022-09-09T03:58:16;23.40;59.80
44111;DHT22;29774;52.664;5.074;2022-09-09T04:00:52;23.20;60.20
44111;DHT22;29774;52.664;5.074;2022-09-09T04:03:18;23.70;58.90
44111;DHT22;29774;52.664;5.074;2022-09-09T04:05:44;23.60;58.20
44111;DHT22;29774;52.664;5.074;2022-09-09T04:08:10;23.40;59.00
44111;DHT22;29774;52.664;5.074;2022-09-09T04:10:36;23.20;59.70
44111;DHT22;29774;52.664;5.074;2022-09-09T04:13:03;23.10;60.80
44111;DHT22;29774;52.664;5.074;2022-09-09T04:15:29;23.00;60.90
44111;DHT22;29774;52.664;5.074;2022-09-09T04:17:55;23.10;60.90
44111;DHT22;29774;52.664;5.074;2022-09-09T04:20:21;22.40;62.60
44111;DHT22;29774;52.664;5.074;2022-09-09T04:22:47;22.70;61.90
44111;DHT22;29774;52.664;5.074;2022-09-09T04:25:13;23.00;61.00
44111;DHT22;29774;52.664;5.074;2022-09-09T04:27:38;22.80;61.90
44111;DHT22;29774;52.664;5.074;2022-09-09T04:30:04;22.20;63.00
44111;DHT22;29774;52.664;5.074;2022-09-09T04:32:32;22.40;62.70
44111;DHT22;29774;52.664;5.074;2022-09-09T04:34:58;21.80;64.80
44111;DHT22;29774;52.664;5.074;2022-09-09T04:37:24;23.00;61.10
44111;DHT22;29774;52.664;5.074;2022-09-09T04:39:50;22.80;61.70
44111;DHT22;29774;52.664;5.074;2022-09-09T04:42:16;22.70;61.50
44111;DHT22;29774;52.664;5.074;2022-09-09T04:44:43;22.50;62.40
44111;DHT22;29774;52.664;5.074;2022-09-09T04:47:09;23.00;60.90
44111;DHT22;29774;52.664;5.074;2022-09-09T04:49:35;22.80;60.80
44111;DHT22;29774;52.664;5.074;2022-09-09T04:52:02;22.60;62.50
44111;DHT22;29774;52.664;5.074;2022-09-09T04:54:29;22.60;62.40
44111;DHT22;29774;52.664;5.074;2022-09-09T04:56:54;22.50;62.40
44111;DHT22;29774;52.664;5.074;2022-09-09T04:59:20;22.40;62.80
44111;DHT22;29774;52.664;5.074;2022-09-09T05:01:47;22.20;63.20
44111;DHT22;29774;52.664;5.074;2022-09-09T05:04:14;22.50;62.80
44111;DHT22;29774;52.664;5.074;2022-09-09T05:06:42;22.90;61.50
44111;DHT22;29774;52.664;5.074;2022-09-09T05:09:08;22.80;61.10
44111;DHT22;29774;52.664;5.074;2022-09-09T05:11:34;22.70;61.20
44111;DHT22;29774;52.664;5.074;2022-09-09T05:14:02;22.50;62.40
44111;DHT22;29774;52.664;5.074;2022-09-09T05:16:28;22.60;62.50
44111;DHT22;29774;52.664;5.074;2022-09-09T05:18:55;23.00;61.10
44111;DHT22;29774;52.664;5.074;2022-09-09T05:21:23;21.90;64.10
44111;DHT22;29774;52.664;5.074;2022-09-09T05:23:50;22.60;62.60
44111;DHT22;29774;52.664;5.074;2022-09-09T05:26:18;22.20;63.60
44111;DHT22;29774;52.664;5.074;2022-09-09T05:28:45;23.00;59.90
44111;DHT22;29774;52.664;5.074;2022-09-09T05:31:12;22.20;63.70
44111;DHT22;29774;52.664;5.074;2022-09-09T05:33:39;22.60;62.40
44111;DHT22;29774;52.664;5.074;2022-09-09T05:36:08;22.40;62.50
44111;DHT22;29774;52.664;5.074;2022-09-09T05:38:35;22.70;60.90
44111;DHT22;29774;52.664;5.074;2022-09-09T05:41:02;22.80;61.70
44111;DHT22;29774;52.664;5.074;2022-09-09T05:43:28;22.80;61.30
44111;DHT22;29774;52.664;5.074;2022-09-09T05:46:03;22.60;62.20
44111;DHT22;29774;52.664;5.074;2022-09-09T05:48:31;22.40;62.30
44111;DHT22;29774;52.664;5.074;2022-09-09T05:50:57;22.70;61.60
44111;DHT22;29774;52.664;5.074;2022-09-09T05:53:23;22.50;62.00
44111;DHT22;29774;52.664;5.074;2022-09-09T05:55:48;23.00;61.00
44111;DHT22;29774;52.664;5.074;2022-09-09T05:58:14;22.80;61.20
44111;DHT22;29774;52.664;5.074;2022-09-09T06:00:42;22.70;61.40
44111;DHT22;29774;52.664;5.074;2022-09-09T06:03:11;22.40;61.90
44111;DHT22;29774;52.664;5.074;2022-09-09T06:05:36;22.40;62.10
44111;DHT22;29774;52.664;5.074;2022-09-09T06:08:03;22.40;62.20
44111;DHT22;29774;52.664;5.074;2022-09-09T06:10:28;22.30;62.10
44111;DHT22;29774;52.664;5.074;2022-09-09T06:12:54;22.60;62.00
44111;DHT22;29774;52.664;5.074;2022-09-09T06:15:19;22.60;61.80
44111;DHT22;29774;52.664;5.074;2022-09-09T06:17:45;22.60;61.70
44111;DHT22;29774;52.664;5.074;2022-09-09T06:20:11;22.20;62.30
44111;DHT22;29774;52.664;5.074;2022-09-09T06:22:39;22.00;62.90
44111;DHT22;29774;52.664;5.074;2022-09-09T06:25:07;22.00;63.30
44111;DHT22;29774;52.664;5.074;2022-09-09T06:27:33;21.80;64.30
44111;DHT22;29774;52.664;5.074;2022-09-09T06:29:58;22.00;63.80
44111;DHT22;29774;52.664;5.074;2022-09-09T06:32:24;22.40;62.20
44111;DHT22;29774;52.664;5.074;2022-09-09T06:34:50;22.20;62.50
44111;DHT22;29774;52.664;5.074;2022-09-09T06:37:15;22.10;63.10
44111;DHT22;29774;52.664;5.074;2022-09-09T06:39:41;22.30;62.80
44111;DHT22;29774;52.664;5.074;2022-09-09T06:42:07;22.20;63.50
44111;DHT22;29774;52.664;5.074;2022-09-09T06:44:34;21.80;64.50
44111;DHT22;29774;52.664;5.074;2022-09-09T06:47:00;22.30;62.90
44111;DHT22;29774;52.664;5.074;2022-09-09T06:49:25;22.80;61.00
44111;DHT22;29774;52.664;5.074;2022-09-09T06:51:51;22.70;61.50
44111;DHT22;29774;52.664;5.074;2022-09-09T06:54:17;22.40;62.50
44111;DHT22;29774;52.664;5.074;2022-09-09T06:56:43;22.70;61.10
44111;DHT22;29774;52.664;5.074;2022-09-09T06:59:11;23.00;60.50
44111;DHT22;29774;52.664;5.074;2022-09-09T07:01:39;22.70;60.90
44111;DHT22;29774;52.664;5.074;2022-09-09T07:04:09;22.70;61.30
44111;DHT22;29774;52.664;5.074;2022-09-09T07:06:41;22.70;61.50
44111;DHT22;29774;52.664;5.074;2022-09-09T07:09:12;22.50;62.00
44111;DHT22;29774;52.664;5.074;2022-09-09T07:11:41;22.70;61.80
44111;DHT22;29774;52.664;5.074;2022-09-09T07:14:07;22.20;63.20
44111;DHT22;29774;52.664;5.074;2022-09-09T07:16:34;22.30;62.70
44111;DHT22;29774;52.664;5.074;2022-09-09T07:19:03;22.70;61.30
44111;DHT22;29774;52.664;5.074;2022-09-09T07:21:30;22.70;61.10
44111;DHT22;29774;52.664;5.074;2022-09-09T07:23:56;22.70;61.20
44111;DHT22;29774;52.664;5.074;2022-09-09T07:26:28;22.90;61.10
44111;DHT22;29774;52.664;5.074;2022-09-09T07:28:54;22.90;60.60
44111;DHT22;29774;52.664;5.074;2022-09-09T07:31:24;23.00;61.00
44111;DHT22;29774;52.664;5.074;2022-09-09T07:33:50;22.50;61.60
44111;DHT22;29774;52.664;5.074;2022-09-09T07:36:26;22.50;62.30
44111;DHT22;29774;52.664;5.074;2022-09-09T07:38:54;22.70;61.00
44111;DHT22;29774;52.664;5.074;2022-09-09T07:41:32;22.70;61.70
44111;DHT22;29774;52.664;5.074;2022-09-09T07:44:03;23.10;61.10
44111;DHT22;29774;52.664;5.074;2022-09-09T07:46:29;22.70;61.10
44111;DHT22;29774;52.664;5.074;2022-09-09T07:48:55;23.00;61.00
44111;DHT22;29774;52.664;5.074;2022-09-09T07:51:27;23.20;60.80
44111;DHT22;29774;52.664;5.074;2022-09-09T07:53:55;23.30;60.60
44111;DHT22;29774;52.664;5.074;2022-09-09T07:56:23;23.10;60.90
44111;DHT22;29774;52.664;5.074;2022-09-09T07:58:50;23.20;60.40
44111;DHT22;29774;52.664;5.074;2022-09-09T08:01:40;22.90;61.30
44111;DHT22;29774;52.664;5.074;2022-09-09T08:04:09;23.00;61.00
44111;DHT22;29774;52.664;5.074;2022-09-09T08:06:37;23.00;61.20
44111;DHT22;29774;52.664;5.074;2022-09-09T08:09:03;23.20;60.60
44111;DHT22;29774;52.664;5.074;2022-09-09T08:11:29;23.30;60.20
44111;DHT22;29774;52.664;5.074;2022-09-09T08:13:56;23.40;60.00
44111;DHT22;29774;52.664;5.074;2022-09-09T08:16:27;23.50;59.80
44111;DHT22;29774;52.664;5.074;2022-09-09T08:18:53;23.60;59.50
44111;DHT22;29774;52.664;5.074;2022-09-09T08:21:23;23.30;60.00
44111;DHT22;29774;52.664;5.074;2022-09-09T08:23:51;23.40;60.20
44111;DHT22;29774;52.664;5.074;2022-09-09T08:26:20;23.50;60.00
44111;DHT22;29774;52.664;5.074;2022-09-09T08:28:48;23.50;60.00
44111;DHT22;29774;52.664;5.074;2022-09-09T08:31:20;23.50;59.70
44111;DHT22;29774;52.664;5.074;2022-09-09T08:33:47;23.30;60.10
44111;DHT22;29774;52.664;5.074;2022-09-09T08:36:20;23.40;59.80
44111;DHT22;29774;52.664;5.074;2022-09-09T08:38:52;23.50;60.50
44111;DHT22;29774;52.664;5.074;2022-09-09T08:43:58;23.30;60.50
44111;DHT22;29774;52.664;5.074;2022-09-09T08:52:47;23.30;60.30
44111;DHT22;29774;52.664;5.074;2022-09-09T08:57:51;23.20;61.00
44111;DHT22;29774;52.664;5.074;2022-09-09T09:00:18;23.30;60.80
44111;DHT22;29774;52.664;5.074;2022-09-09T09:05:47;23.20;59.20
44111;DHT22;29774;52.664;5.074;2022-09-09T09:08:33;23.00;61.40
44111;DHT22;29774;52.664;5.074;2022-09-09T09:11:03;23.50;58.80
44111;DHT22;29774;52.664;5.074;2022-09-09T09:13:43;23.20;60.00
44111;DHT22;29774;52.664;5.074;2022-09-09T09:16:33;23.60;59.80
44111;DHT22;29774;52.664;5.074;2022-09-09T09:19:00;23.70;60.00
44111;DHT22;29774;52.664;5.074;2022-09-09T09:21:34;23.60;59.60
44111;DHT22;29774;52.664;5.074;2022-09-09T09:24:01;23.80;59.20
44111;DHT22;29774;52.664;5.074;2022-09-09T09:26:35;23.90;58.90
44111;DHT22;29774;52.664;5.074;2022-09-09T09:29:14;24.10;58.60
44111;DHT22;29774;52.664;5.074;2022-09-09T09:31:46;23.90;59.50
44111;DHT22;29774;52.664;5.074;2022-09-09T09:34:13;23.70;58.70
44111;DHT22;29774;52.664;5.074;2022-09-09T09:36:51;23.50;59.60
44111;DHT22;29774;52.664;5.074;2022-09-09T09:39:29;23.30;60.20
44111;DHT22;29774;52.664;5.074;2022-09-09T09:41:54;23.20;61.10
44111;DHT22;29774;52.664;5.074;2022-09-09T09:44:24;23.50;60.30
44111;DHT22;29774;52.664;5.074;2022-09-09T09:46:50;23.00;60.90
44111;DHT22;29774;52.664;5.074;2022-09-09T09:49:16;23.00;61.80
44111;DHT22;29774;52.664;5.074;2022-09-09T09:51:42;23.30;60.40
44111;DHT22;29774;52.664;5.074;2022-09-09T09:54:25;23.70;60.00
44111;DHT22;29774;52.664;5.074;2022-09-09T09:56:53;23.80;59.40
44111;DHT22;29774;52.664;5.074;2022-09-09T09:59:34;23.50;59.90
44111;DHT22;29774;52.664;5.074;2022-09-09T10:02:14;23.70;60.80
44111;DHT22;29774;52.664;5.074;2022-09-09T10:04:40;23.70;59.50
44111;DHT22;29774;52.664;5.074;2022-09-09T10:07:18;23.90;59.00
44111;DHT22;29774;52.664;5.074;2022-09-09T10:09:44;23.90;58.80
44111;DHT22;29774;52.664;5.074;2022-09-09T10:12:24;23.90;58.70
44111;DHT22;29774;52.664;5.074;2022-09-09T10:17:53;23.80;59.30
44111;DHT22;29774;52.664;5.074;2022-09-09T10:23:28;23.60;59.40
44111;DHT22;29774;52.664;5.074;2022-09-09T10:31:53;23.50;59.90
44111;DHT22;29774;52.664;5.074;2022-09-09T10:35:01;23.60;59.10
44111;DHT22;29774;52.664;5.074;2022-09-09T10:40:33;23.20;60.90
44111;DHT22;29774;52.664;5.074;2022-09-09T10:57:11;23.00;60.40
44111;DHT22;29774;52.664;5.074;2022-09-09T10:59:47;22.70;61.40
44111;DHT22;29774;52.664;5.074;2022-09-09T11:02:19;23.10;60.80
44111;DHT22;29774;52.664;5.074;2022-09-09T11:05:04;23.20;60.30
44111;DHT22;29774;52.664;5.074;2022-09-09T11:13:14;23.30;60.40
44111;DHT22;29774;52.664;5.074;2022-09-09T11:15:52;23.50;59.10
44111;DHT22;29774;52.664;5.074;2022-09-09T11:18:21;23.30;59.60
44111;DHT22;29774;52.664;5.074;2022-09-09T11:20:51;23.00;60.80
44111;DHT22;29774;52.664;5.074;2022-09-09T11:23:27;23.40;59.80
44111;DHT22;29774;52.664;5.074;2022-09-09T11:25:56;23.20;60.80
44111;DHT22;29774;52.664;5.074;2022-09-09T11:37:15;22.80;61.70
44111;DHT22;29774;52.664;5.074;2022-09-09T11:42:23;23.20;60.90
44111;DHT22;29774;52.664;5.074;2022-09-09T11:44:49;23.50;60.30
44111;DHT22;29774;52.664;5.074;2022-09-09T11:47:29;23.60;60.00
44111;DHT22;29774;52.664;5.074;2022-09-09T11:50:29;23.50;59.90
44111;DHT22;29774;52.664;5.074;2022-09-09T11:55:39;23.70;58.90
44111;DHT22;29774;52.664;5.074;2022-09-09T11:58:05;23.80;59.00
44111;DHT22;29774;52.664;5.074;2022-09-09T12:00:38;23.50;60.20
44111;DHT22;29774;52.664;5.074;2022-09-09T12:03:06;23.70;59.80
44111;DHT22;29774;52.664;5.074;2022-09-09T12:05:40;23.30;60.50
44111;DHT22;29774;52.664;5.074;2022-09-09T12:08:11;23.60;59.60
44111;DHT22;29774;52.664;5.074;2022-09-09T12:10:39;23.50;59.90
44111;DHT22;29774;52.664;5.074;2022-09-09T12:13:19;23.50;60.00
44111;DHT22;29774;52.664;5.074;2022-09-09T12:15:57;23.30;60.90
44111;DHT22;29774;52.664;5.074;2022-09-09T12:18:24;23.40;60.80
44111;DHT22;29774;52.664;5.074;2022-09-09T12:23:51;23.70;59.60
44111;DHT22;29774;52.664;5.074;2022-09-09T12:26:52;23.70;60.30
44111;DHT22;29774;52.664;5.074;2022-09-09T12:29:44;23.70;59.90
44111;DHT22;29774;52.664;5.074;2022-09-09T12:32:20;23.80;59.60
44111;DHT22;29774;52.664;5.074;2022-09-09T12:35:18;23.70;59.50
44111;DHT22;29774;52.664;5.074;2022-09-09T12:37:47;23.80;59.50
44111;DHT22;29774;52.664;5.074;2022-09-09T12:40:19;24.00;59.20
44111;DHT22;29774;52.664;5.074;2022-09-09T12:42:46;24.00;58.70
44111;DHT22;29774;52.664;5.074;2022-09-09T12:45:23;23.90;59.00
44111;DHT22;29774;52.664;5.074;2022-09-09T12:47:55;23.90;59.20
44111;DHT22;29774;52.664;5.074;2022-09-09T12:50:29;24.20;58.50
44111;DHT22;29774;52.664;5.074;2022-09-09T12:53:01;24.20;58.60
44111;DHT22;29774;52.664;5.074;2022-09-09T12:55:36;24.30;58.20
44111;DHT22;29774;52.664;5.074;2022-09-09T12:58:04;24.20;58.80
44111;DHT22;29774;52.664;5.074;2022-09-09T13:00:34;24.10;58.80
44111;DHT22;29774;52.664;5.074;2022-09-09T13:03:02;24.10;58.60
44111;DHT22;29774;52.664;5.074;2022-09-09T13:05:35;23.90;59.40
44111;DHT22;29774;52.664;5.074;2022-09-09T13:08:12;23.80;59.70
44111;DHT22;29774;52.664;5.074;2022-09-09T13:10:46;24.10;59.10
44111;DHT22;29774;52.664;5.074;2022-09-09T13:13:17;23.90;59.50
44111;DHT22;29774;52.664;5.074;2022-09-09T13:16:04;23.80;59.80
44111;DHT22;29774;52.664;5.074;2022-09-09T13:18:34;24.00;59.10
44111;DHT22;29774;52.664;5.074;2022-09-09T13:21:00;24.10;58.40
44111;DHT22;29774;52.664;5.074;2022-09-09T13:23:37;24.00;59.30
44111;DHT22;29774;52.664;5.074;2022-09-09T13:26:25;24.00;59.40
44111;DHT22;29774;52.664;5.074;2022-09-09T13:28:52;24.30;58.80
44111;DHT22;29774;52.664;5.074;2022-09-09T13:31:27;24.50;58.30
44111;DHT22;29774;52.664;5.074;2022-09-09T13:33:53;24.50;58.10
44111;DHT22;29774;52.664;5.074;2022-09-09T13:36:31;24.20;59.00
44111;DHT22;29774;52.664;5.074;2022-09-09T13:38:59;24.50;58.30
44111;DHT22;29774;52.664;5.074;2022-09-09T13:41:35;24.60;57.90
44111;DHT22;29774;52.664;5.074;2022-09-09T13:44:02;24.60;57.80
44111;DHT22;29774;52.664;5.074;2022-09-09T13:46:40;24.50;57.80
44111;DHT22;29774;52.664;5.074;2022-09-09T13:51:45;24.60;58.30
44111;DHT22;29774;52.664;5.074;2022-09-09T13:54:13;24.50;58.10
44111;DHT22;29774;52.664;5.074;2022-09-09T13:56:41;24.50;58.40
44111;DHT22;29774;52.664;5.074;2022-09-09T13:59:14;24.50;58.20
44111;DHT22;29774;52.664;5.074;2022-09-09T14:01:40;24.60;58.30
44111;DHT22;29774;52.664;5.074;2022-09-09T14:04:07;24.50;58.00
44111;DHT22;29774;52.664;5.074;2022-09-09T14:06:35;24.40;58.70
44111;DHT22;29774;52.664;5.074;2022-09-09T14:09:04;24.70;57.80
44111;DHT22;29774;52.664;5.074;2022-09-09T14:11:30;24.70;57.90
44111;DHT22;29774;52.664;5.074;2022-09-09T14:13:56;24.70;57.60
44111;DHT22;29774;52.664;5.074;2022-09-09T14:16:21;24.40;58.90
44111;DHT22;29774;52.664;5.074;2022-09-09T14:18:48;24.40;58.70
44111;DHT22;29774;52.664;5.074;2022-09-09T14:21:14;24.30;59.20
44111;DHT22;29774;52.664;5.074;2022-09-09T14:23:41;24.50;58.30
44111;DHT22;29774;52.664;5.074;2022-09-09T14:26:06;24.60;58.00
44111;DHT22;29774;52.664;5.074;2022-09-09T14:28:33;24.60;58.00
44111;DHT22;29774;52.664;5.074;2022-09-09T14:31:00;24.60;58.10
44111;DHT22;29774;52.664;5.074;2022-09-09T14:33:26;24.80;57.80
44111;DHT22;29774;52.664;5.074;2022-09-09T14:36:00;24.80;57.60
44111;DHT22;29774;52.664;5.074;2022-09-09T14:38:31;24.70;58.10
44111;DHT22;29774;52.664;5.074;2022-09-09T14:40:57;24.70;58.30
44111;DHT22;29774;52.664;5.074;2022-09-09T14:43:23;24.80;57.70
44111;DHT22;29774;52.664;5.074;2022-09-09T14:45:49;24.70;58.00
44111;DHT22;29774;52.664;5.074;2022-09-09T14:48:16;24.50;58.50
44111;DHT22;29774;52.664;5.074;2022-09-09T14:50:42;24.80;57.80
44111;DHT22;29774;52.664;5.074;2022-09-09T14:53:09;24.70;57.40
44111;DHT22;29774;52.664;5.074;2022-09-09T14:55:36;24.60;58.10
44111;DHT22;29774;52.664;5.074;2022-09-09T14:58:02;24.40;58.80
44111;DHT22;29774;52.664;5.074;2022-09-09T15:00:28;24.70;57.90
44111;DHT22;29774;52.664;5.074;2022-09-09T15:02:54;24.80;57.40
44111;DHT22;29774;52.664;5.074;2022-09-09T15:05:20;24.60;58.20
44111;DHT22;29774;52.664;5.074;2022-09-09T15:07:46;24.70;57.90
44111;DHT22;29774;52.664;5.074;2022-09-09T15:10:13;24.70;57.80
44111;DHT22;29774;52.664;5.074;2022-09-09T15:12:39;24.50;58.30
44111;DHT22;29774;52.664;5.074;2022-09-09T15:15:05;24.50;58.70
44111;DHT22;29774;52.664;5.074;2022-09-09T15:17:31;24.60;58.30
44111;DHT22;29774;52.664;5.074;2022-09-09T15:19:56;24.40;58.70
44111;DHT22;29774;52.664;5.074;2022-09-09T15:22:23;24.70;57.30
44111;DHT22;29774;52.664;5.074;2022-09-09T15:24:49;24.80;57.70
44111;DHT22;29774;52.664;5.074;2022-09-09T15:27:15;24.90;57.40
44111;DHT22;29774;52.664;5.074;2022-09-09T15:29:41;24.90;57.50
44111;DHT22;29774;52.664;5.074;2022-09-09T15:32:07;24.60;58.40
44111;DHT22;29774;52.664;5.074;2022-09-09T15:34:33;24.90;57.50
44111;DHT22;29774;52.664;5.074;2022-09-09T15:36:59;25.10;57.20
44111;DHT22;29774;52.664;5.074;2022-09-09T15:39:27;25.10;56.90
44111;DHT22;29774;52.664;5.074;2022-09-09T15:41:53;25.10;57.10
44111;DHT22;29774;52.664;5.074;2022-09-09T15:44:18;25.00;57.80
44111;DHT22;29774;52.664;5.074;2022-09-09T15:46:48;25.10;57.30
44111;DHT22;29774;52.664;5.074;2022-09-09T15:49:20;25.10;57.20
44111;DHT22;29774;52.664;5.074;2022-09-09T15:51:59;25.20;57.30
44111;DHT22;29774;52.664;5.074;2022-09-09T15:54:31;25.10;57.40
44111;DHT22;29774;52.664;5.074;2022-09-09T15:57:00;25.10;57.80
44111;DHT22;29774;52.664;5.074;2022-09-09T15:59:28;25.20;57.20
44111;DHT22;29774;52.664;5.074;2022-09-09T16:01:54;25.20;57.40
44111;DHT22;29774;52.664;5.074;2022-09-09T16:04:21;25.20;57.40
44111;DHT22;29774;52.664;5.074;2022-09-09T16:07:03;25.20;57.50
44111;DHT22;29774;52.664;5.074;2022-09-09T16:09:30;25.20;57.80
44111;DHT22;29774;52.664;5.074;2022-09-09T16:11:57;25.20;57.50
44111;DHT22;29774;52.664;5.074;2022-09-09T16:14:24;25.20;57.20
44111;DHT22;29774;52.664;5.074;2022-09-09T16:16:51;25.20;57.30
44111;DHT22;29774;52.664;5.074;2022-09-09T16:19:17;25.20;57.10
44111;DHT22;29774;52.664;5.074;2022-09-09T16:21:45;25.20;57.30
44111;DHT22;29774;52.664;5.074;2022-09-09T16:24:14;25.20;57.20
44111;DHT22;29774;52.664;5.074;2022-09-09T16:26:42;25.20;57.10
44111;DHT22;29774;52.664;5.074;2022-09-09T16:29:10;25.20;56.80
44111;DHT22;29774;52.664;5.074;2022-09-09T16:31:37;25.20;57.10
44111;DHT22;29774;52.664;5.074;2022-09-09T16:34:03;25.20;57.00
44111;DHT22;29774;52.664;5.074;2022-09-09T16:36:31;25.20;57.20
44111;DHT22;29774;52.664;5.074;2022-09-09T16:38:58;25.20;56.30
44111;DHT22;29774;52.664;5.074;2022-09-09T16:41:26;25.00;57.50
44111;DHT22;29774;52.664;5.074;2022-09-09T16:44:00;24.90;57.70
44111;DHT22;29774;52.664;5.074;2022-09-09T16:46:28;25.10;57.20
44111;DHT22;29774;52.664;5.074;2022-09-09T16:48:56;25.10;57.10
44111;DHT22;29774;52.664;5.074;2022-09-09T16:51:26;24.90;57.60
44111;DHT22;29774;52.664;5.074;2022-09-09T16:53:53;25.00;57.30
44111;DHT22;29774;52.664;5.074;2022-09-09T16:56:21;25.00;57.50
44111;DHT22;29774;52.664;5.074;2022-09-09T16:58:52;24.90;57.60
44111;DHT22;29774;52.664;5.074;2022-09-09T17:01:19;24.90;57.50
44111;DHT22;29774;52.664;5.074;2022-09-09T17:03:45;24.90;57.50
44111;DHT22;29774;52.664;5.074;2022-09-09T17:06:11;24.70;58.00
44111;DHT22;29774;52.664;5.074;2022-09-09T17:08:41;24.80;57.70
44111;DHT22;29774;52.664;5.074;2022-09-09T17:11:17;24.60;58.40
44111;DHT22;29774;52.664;5.074;2022-09-09T17:13:45;24.50;58.80
44111;DHT22;29774;52.664;5.074;2022-09-09T17:16:12;24.60;58.10
44111;DHT22;29774;52.664;5.074;2022-09-09T17:18:39;24.70;57.90
44111;DHT22;29774;52.664;5.074;2022-09-09T17:21:07;24.70;58.30
44111;DHT22;29774;52.664;5.074;2022-09-09T17:23:34;24.40;59.20
44111;DHT22;29774;52.664;5.074;2022-09-09T17:26:06;24.50;58.90